Time;durP1;ratioP1;P1;durP2;ratioP2;P2;SDS_P1;SDS_P2;PMS_P1;PMS_P2;Temp;Humidity;BMP_temperature;BMP_pressure;BME280_temperature;BME280_humidity;BME280_pressure;Samples;Min_cycle;Max_cycle;Signal;HPM_P1;HPM_P2
2023/09/08 00:00:47;;;;;;;8.50;7.10;;;;;;;16.69;88.51;101633.52;105187;1270;99274;-85
2023/09/08 00:03:32;;;;;;;9.10;6.70;;;;;;;16.67;88.41;101629.77;105688;1273;99866;-84
2023/09/08 00:06:18;;;;;;;13.00;7.00;;;;;;;16.63;88.62;101629.13;105226;1273;99936;-84
2023/09/08 00:09:04;;;;;;;12.20;7.50;;;;;;;16.62;88.93;101625.66;105119;1273;102732;-84
2023/09/08 00:11:49;;;;;;;10.20;6.10;;;;;;;16.62;89.03;101625.38;105145;1267;100695;-85
2023/09/08 00:14:35;;;;;;;8.50;6.40;;;;;;;16.60;88.65;101621.83;105066;1267;100805;-85
2023/09/08 00:17:20;;;;;;;8.50;7.10;;;;;;;16.57;88.57;101623.10;105129;1267;99988;-85
2023/09/08 00:20:09;;;;;;;9.20;7.20;;;;;;;16.55;88.45;101622.35;105041;1267;99796;-84
2023/09/08 00:22:55;;;;;;;8.80;7.10;;;;;;;16.51;88.56;101619.70;105288;1267;102738;-85
2023/09/08 00:25:40;;;;;;;12.60;8.10;;;;;;;16.48;88.77;101621.63;105160;1267;99745;-86
2023/09/08 00:28:26;;;;;;;9.90;7.40;;;;;;;16.44;88.62;101622.88;105282;1271;99399;-86
2023/09/08 00:31:11;;;;;;;8.80;7.60;;;;;;;16.39;88.84;101624.18;105209;1273;100002;-85
2023/09/08 00:33:56;;;;;;;12.10;7.90;;;;;;;16.36;89.34;101625.34;105181;1270;99773;-85
2023/09/08 00:36:41;;;;;;;12.10;7.60;;;;;;;16.32;89.62;101623.35;105162;1267;102793;-85
2023/09/08 00:39:27;;;;;;;9.50;6.70;;;;;;;16.29;89.54;101621.05;105238;1267;99423;-86
2023/09/08 00:42:13;;;;;;;12.50;7.40;;;;;;;16.23;89.36;101617.78;105218;1267;99243;-84
2023/09/08 00:45:00;;;;;;;12.40;7.10;;;;;;;16.18;89.32;101622.23;105068;1273;119591;-86
2023/09/08 00:47:45;;;;;;;11.20;7.60;;;;;;;16.13;89.54;101621.73;105075;1267;100792;-85
2023/09/08 00:50:31;;;;;;;8.30;6.90;;;;;;;16.10;89.94;101622.34;105237;1273;102788;-84
2023/09/08 00:53:17;;;;;;;9.10;6.40;;;;;;;16.09;89.87;101621.34;105074;1267;100417;-85
2023/09/08 00:56:04;;;;;;;8.70;6.80;;;;;;;16.06;89.83;101622.41;105137;1273;99331;-84
2023/09/08 00:58:50;;;;;;;9.20;6.90;;;;;;;16.03;89.87;101621.41;105192;1267;99428;-84
2023/09/08 01:01:35;;;;;;;10.00;6.00;;;;;;;15.98;89.87;101617.10;105260;1267;101132;-84
2023/09/08 01:04:21;;;;;;;10.40;7.30;;;;;;;15.93;89.48;101618.82;105043;1268;103663;-84
2023/09/08 01:07:09;;;;;;;9.40;6.90;;;;;;;15.91;90.40;101619.54;105058;1267;99319;-83
2023/09/08 01:09:55;;;;;;;8.60;6.60;;;;;;;15.89;90.16;101617.75;104889;1274;99347;-83
2023/09/08 01:12:41;;;;;;;9.00;6.80;;;;;;;15.88;89.59;101616.52;105237;1268;99415;-83
2023/09/08 01:15:27;;;;;;;9.80;7.00;;;;;;;15.85;89.29;101618.47;105132;1267;99787;-85
2023/09/08 01:18:13;;;;;;;8.10;7.20;;;;;;;15.82;89.41;101616.15;105191;1267;103944;-85
2023/09/08 01:21:14;;;;;;;8.20;7.40;;;;;;;15.80;89.80;101616.21;105149;1267;99479;-85
2023/09/08 01:24:15;;;;;;;;;;;;;;;15.77;90.02;101612.83;105151;1272;99259;-84
2023/09/08 01:27:01;;;;;;;8.90;6.70;;;;;;;15.70;89.57;101609.29;105191;1267;99358;-84
2023/09/08 01:29:48;;;;;;;8.70;6.20;;;;;;;15.64;89.61;101609.39;105008;1270;99902;-84
2023/09/08 01:32:35;;;;;;;7.30;6.30;;;;;;;15.58;89.68;101608.48;105090;1273;102781;-84
2023/09/08 01:35:21;;;;;;;9.40;6.30;;;;;;;15.54;89.48;101610.69;105047;1267;99428;-84
2023/09/08 01:38:07;;;;;;;7.00;5.90;;;;;;;15.50;89.35;101607.98;105231;1268;99435;-83
2023/09/08 01:40:52;;;;;;;8.00;6.00;;;;;;;15.45;89.16;101606.70;105324;1273;99332;-83
2023/09/08 01:43:38;;;;;;;9.10;5.80;;;;;;;15.41;89.20;101603.98;105201;1267;99784;-83
2023/09/08 01:46:24;;;;;;;9.30;5.40;;;;;;;15.35;89.15;101605.02;105219;1268;103503;-83
2023/09/08 01:49:09;;;;;;;9.60;5.10;;;;;;;15.28;88.97;101602.48;105033;1267;100389;-82
2023/09/08 01:51:56;;;;;;;7.80;4.90;;;;;;;15.21;88.82;101604.20;105315;1267;99322;-83
2023/09/08 01:54:41;;;;;;;7.00;4.70;;;;;;;15.14;88.74;101605.48;105288;1267;99300;-83
2023/09/08 01:57:27;;;;;;;10.80;4.50;;;;;;;15.08;88.84;101602.03;105018;1274;99272;-85
2023/09/08 02:00:13;;;;;;;5.40;4.70;;;;;;;15.03;88.78;101604.34;105013;1270;104079;-85
2023/09/08 02:02:59;;;;;;;5.50;4.20;;;;;;;14.96;88.57;101605.02;105313;1267;107779;-85
2023/09/08 02:05:45;;;;;;;6.30;4.00;;;;;;;14.90;88.87;101604.77;105142;1270;99945;-84
2023/09/08 02:08:30;;;;;;;5.20;4.10;;;;;;;14.84;88.75;101600.94;105139;1268;99277;-85
2023/09/08 02:11:16;;;;;;;5.80;4.50;;;;;;;14.81;88.74;101599.23;105101;1267;99221;-86
2023/09/08 02:14:01;;;;;;;6.10;4.10;;;;;;;14.79;89.05;101600.41;105218;1267;102702;-86
2023/09/08 02:16:46;;;;;;;4.50;3.60;;;;;;;14.76;89.18;101603.03;105034;1269;99431;-86
2023/09/08 02:19:31;;;;;;;5.30;3.60;;;;;;;14.74;89.34;101599.19;105094;1275;99377;-85
2023/09/08 02:22:18;;;;;;;3.60;3.30;;;;;;;14.69;89.00;101596.85;105131;1267;99367;-85
2023/09/08 02:25:05;;;;;;;6.30;4.20;;;;;;;14.66;89.39;101600.13;105279;1268;99329;-85
2023/09/08 02:27:51;;;;;;;4.10;3.60;;;;;;;14.64;89.25;101594.77;105095;1273;102967;-86
2023/09/08 02:30:37;;;;;;;4.10;3.70;;;;;;;14.62;88.79;101588.84;105192;1270;99336;-85
2023/09/08 02:33:23;;;;;;;3.80;3.50;;;;;;;14.56;88.60;101590.30;105249;1267;99327;-85
2023/09/08 02:36:09;;;;;;;6.20;4.80;;;;;;;14.51;89.00;101591.27;105259;1270;99243;-84
2023/09/08 02:38:56;;;;;;;5.00;4.50;;;;;;;14.49;89.42;101587.84;105162;1268;99783;-85
2023/09/08 02:41:42;;;;;;;6.40;4.70;;;;;;;14.48;89.42;101581.20;105105;1268;104049;-85
2023/09/08 02:44:30;;;;;;;6.70;5.70;;;;;;;14.47;89.50;101583.88;105212;1267;100560;-83
2023/09/08 02:47:15;;;;;;;15.00;6.80;;;;;;;14.44;90.20;101584.89;105102;1275;99566;-84
2023/09/08 02:50:03;;;;;;;10.10;6.60;;;;;;;14.40;90.65;101582.14;105076;1275;99343;-83
2023/09/08 02:52:52;;;;;;;6.70;6.00;;;;;;;14.37;90.86;101578.86;104899;1275;99879;-83
2023/09/08 02:55:37;;;;;;;6.80;6.10;;;;;;;14.36;91.26;101574.66;105121;1268;104057;-84
2023/09/08 02:58:23;;;;;;;7.00;5.90;;;;;;;14.35;91.84;101573.57;105145;1273;99368;-84
2023/09/08 03:01:16;;;;;;;8.90;6.30;;;;;;;14.37;92.51;101574.99;104997;1267;100598;-84
2023/09/08 03:04:02;;;;;;;8.40;6.90;;;;;;;14.40;92.74;101577.90;105309;1272;99412;-82
2023/09/08 03:06:50;;;;;;;9.50;7.10;;;;;;;14.42;92.85;101578.39;105223;1267;99447;-85
2023/09/08 03:09:36;;;;;;;7.40;6.70;;;;;;;14.42;92.26;101575.08;105226;1269;102731;-84
2023/09/08 03:12:21;;;;;;;8.40;6.60;;;;;;;14.42;92.67;101571.17;104989;1273;100112;-84
2023/09/08 03:15:07;;;;;;;8.10;7.30;;;;;;;14.41;92.39;101571.48;105073;1273;99436;-84
2023/09/08 03:17:54;;;;;;;8.20;6.30;;;;;;;14.38;92.04;101565.31;105231;1267;99381;-82
2023/09/08 03:20:43;;;;;;;9.10;6.50;;;;;;;14.35;91.47;101562.09;105100;1267;99258;-84
2023/09/08 03:23:29;;;;;;;7.70;6.70;;;;;;;14.34;91.65;101563.19;105896;1272;102793;-84
2023/09/08 03:26:15;;;;;;;8.10;6.70;;;;;;;14.32;91.64;101564.07;104989;1276;99479;-86
2023/09/08 03:29:01;;;;;;;8.30;7.40;;;;;;;14.31;91.63;101563.90;104996;1275;99294;-85
2023/09/08 03:31:46;;;;;;;9.90;7.80;;;;;;;14.32;92.38;101562.73;105164;1267;100642;-84
2023/09/08 03:34:32;;;;;;;13.10;7.50;;;;;;;14.32;92.47;101558.55;105297;1267;99382;-85
2023/09/08 03:37:17;;;;;;;10.20;8.30;;;;;;;14.31;92.21;101560.87;105125;1272;102791;-84
2023/09/08 03:40:06;;;;;;;10.20;8.30;;;;;;;14.31;92.71;101561.27;105180;1272;100410;-83
2023/09/08 03:42:52;;;;;;;11.50;8.00;;;;;;;14.30;92.91;101559.20;105039;1267;99291;-84
2023/09/08 03:45:38;;;;;;;9.20;8.20;;;;;;;14.28;92.62;101559.77;104915;1274;99969;-83
2023/09/08 03:48:24;;;;;;;12.70;8.30;;;;;;;14.25;92.58;101560.27;104890;1268;99922;-85
2023/09/08 03:51:09;;;;;;;11.20;8.00;;;;;;;14.24;93.06;101559.20;105224;1267;104523;-83
2023/09/08 03:53:55;;;;;;;11.00;9.00;;;;;;;14.23;93.65;101560.02;105163;1273;100483;-84
2023/09/08 03:56:41;;;;;;;16.40;9.20;;;;;;;14.22;93.77;101560.52;104974;1273;99567;-84
2023/09/08 03:59:26;;;;;;;11.80;8.00;;;;;;;14.21;93.35;101559.41;105139;1268;99647;-84
2023/09/08 04:02:12;;;;;;;11.20;8.20;;;;;;;14.18;93.08;101563.35;105272;1276;99256;-84
2023/09/08 04:04:57;;;;;;;11.70;8.10;;;;;;;14.15;92.99;101563.19;105118;1273;103583;-84
2023/09/08 04:07:47;;;;;;;8.90;8.00;;;;;;;14.14;92.65;101561.23;105128;1273;99423;-83
2023/09/08 04:10:33;;;;;;;12.00;8.40;;;;;;;14.11;92.68;101559.69;105099;1267;99152;-84
2023/09/08 04:13:19;;;;;;;9.10;7.90;;;;;;;14.11;92.57;101560.48;105162;1273;99317;-84
2023/09/08 04:16:04;;;;;;;9.80;8.00;;;;;;;14.11;92.78;101561.02;105208;1273;99411;-83
2023/09/08 04:18:50;;;;;;;12.20;8.70;;;;;;;14.11;92.78;101555.35;105103;1268;102853;-84
2023/09/08 04:21:36;;;;;;;10.70;9.00;;;;;;;14.13;92.80;101557.95;105123;1267;99412;-84
2023/09/08 04:24:21;;;;;;;11.20;8.90;;;;;;;14.16;92.93;101556.23;105170;1267;99797;-84
2023/09/08 04:27:09;;;;;;;9.00;7.70;;;;;;;14.18;93.03;101556.39;105023;1275;99536;-84
2023/09/08 04:29:55;;;;;;;11.20;7.50;;;;;;;14.15;92.53;101557.46;105198;1268;99767;-84
2023/09/08 04:32:41;;;;;;;10.00;6.90;;;;;;;14.09;92.03;101553.86;105228;1273;102917;-84
2023/09/08 04:35:27;;;;;;;7.50;5.90;;;;;;;14.05;91.99;101554.17;105381;1267;99492;-84
2023/09/08 04:38:12;;;;;;;6.90;6.10;;;;;;;14.01;92.05;101556.61;105248;1273;99428;-84
2023/09/08 04:40:57;;;;;;;7.60;5.60;;;;;;;13.98;92.18;101557.73;105250;1272;99428;-84
2023/09/08 04:43:43;;;;;;;6.40;5.80;;;;;;;13.94;92.36;101558.51;105153;1275;99255;-84
2023/09/08 04:46:28;;;;;;;10.30;5.70;;;;;;;13.92;92.38;101555.84;105199;1273;102817;-83
2023/09/08 04:49:14;;;;;;;6.50;5.90;;;;;;;13.92;92.35;101557.94;105476;1272;99198;-84
2023/09/08 04:52:00;;;;;;;11.50;7.40;;;;;;;13.93;92.69;101556.54;105375;1276;99256;-84
2023/09/08 04:54:47;;;;;;;7.90;6.80;;;;;;;13.94;93.10;101554.77;105296;1268;99383;-84
2023/09/08 04:57:34;;;;;;;8.40;6.30;;;;;;;13.97;93.51;101555.89;105327;1267;99424;-85
2023/09/08 05:00:19;;;;;;;7.00;5.70;;;;;;;13.99;93.61;101555.80;105114;1268;103482;-83
2023/09/08 05:03:05;;;;;;;6.80;5.40;;;;;;;14.01;93.62;101552.34;105227;1273;99308;-84
2023/09/08 05:05:51;;;;;;;7.60;5.50;;;;;;;14.02;93.52;101555.59;105005;1272;99381;-84
2023/09/08 05:08:37;;;;;;;10.00;5.70;;;;;;;14.02;93.49;101547.52;105404;1273;99291;-84
2023/09/08 05:11:22;;;;;;;7.00;5.70;;;;;;;14.03;93.29;101544.23;105072;1268;98599;-84
2023/09/08 05:14:08;;;;;;;7.50;5.40;;;;;;;14.02;93.71;101544.98;105139;1267;102785;-84
2023/09/08 05:16:56;;;;;;;8.10;5.60;;;;;;;14.04;93.80;101545.71;105071;1273;100226;-83
2023/09/08 05:19:44;;;;;;;10.90;7.50;;;;;;;14.06;94.46;101544.29;105234;1267;99351;-84
2023/09/08 05:22:29;;;;;;;9.00;7.10;;;;;;;14.12;95.19;101546.15;105312;1272;99526;-84
2023/09/08 05:25:15;;;;;;;10.60;6.80;;;;;;;14.16;95.72;101550.41;105289;1270;99300;-84
2023/09/08 05:28:00;;;;;;;8.30;5.40;;;;;;;14.20;96.31;101548.84;105309;1272;103732;-85
2023/09/08 05:30:46;;;;;;;11.20;6.60;;;;;;;14.22;96.86;101548.40;105179;1268;99364;-83
2023/09/08 05:33:32;;;;;;;10.00;7.80;;;;;;;14.26;97.17;101551.07;105349;1268;99392;-85
2023/09/08 05:36:18;;;;;;;8.20;6.20;;;;;;;14.29;97.84;101550.14;105273;1273;99427;-84
2023/09/08 05:39:05;;;;;;;8.70;6.40;;;;;;;14.34;98.29;101554.36;105316;1267;99948;-84
2023/09/08 05:41:51;;;;;;;14.70;7.70;;;;;;;14.38;99.20;101554.87;105334;1272;104057;-85
2023/09/08 05:44:38;;;;;;;11.10;7.90;;;;;;;14.44;99.77;101552.65;105171;1273;100579;-84
2023/09/08 05:47:24;;;;;;;12.50;9.10;;;;;;;14.49;99.94;101553.55;105122;1273;99320;-86
2023/09/08 05:50:11;;;;;;;13.00;9.70;;;;;;;14.55;100.00;101549.02;105081;1275;99246;-85
2023/09/08 05:52:56;;;;;;;11.90;10.60;;;;;;;14.63;100.00;101553.23;105164;1273;99346;-84
2023/09/08 05:55:42;;;;;;;14.60;10.10;;;;;;;14.73;100.00;101557.94;105019;1273;102814;-84
2023/09/08 05:58:28;;;;;;;13.10;11.30;;;;;;;14.82;100.00;101558.38;105197;1268;99244;-85
2023/09/08 06:01:15;;;;;;;18.60;12.80;;;;;;;14.92;100.00;101556.07;105152;1273;99361;-84
2023/09/08 06:04:02;;;;;;;17.10;12.30;;;;;;;15.03;100.00;101552.33;105490;1273;99918;-85
2023/09/08 06:06:48;;;;;;;18.60;11.20;;;;;;;15.14;100.00;101557.58;105180;1272;100712;-85
2023/09/08 06:09:34;;;;;;;14.10;11.30;;;;;;;15.25;100.00;101558.80;105281;1267;102756;-85
2023/09/08 06:12:20;;;;;;;12.50;10.90;;;;;;;15.37;100.00;101559.09;105181;1272;99379;-86
2023/09/08 06:15:06;;;;;;;13.30;11.30;;;;;;;15.49;100.00;101558.33;105027;1267;99671;-84
2023/09/08 06:17:52;;;;;;;13.60;12.20;;;;;;;15.61;100.00;101551.73;105300;1276;99275;-84
2023/09/08 06:20:48;;;;;;;17.70;12.20;;;;;;;15.74;100.00;101548.83;105151;1273;100999;-84
2023/09/08 06:23:35;;;;;;;17.60;13.70;;;;;;;15.87;100.00;101546.39;105231;1274;104040;-85
2023/09/08 06:26:21;;;;;;;20.80;13.70;;;;;;;16.00;100.00;101545.86;105046;1268;99396;-84
2023/09/08 06:29:06;;;;;;;15.60;14.00;;;;;;;16.14;100.00;101544.05;105108;1272;99296;-84
2023/09/08 06:31:52;;;;;;;21.30;15.60;;;;;;;16.28;100.00;101543.52;105017;1273;99945;-85
2023/09/08 06:34:37;;;;;;;18.50;15.20;;;;;;;16.42;100.00;101543.98;104957;1273;99252;-85
2023/09/08 06:37:23;;;;;;;21.50;15.90;;;;;;;16.54;100.00;101541.02;105134;1272;104087;-84
2023/09/08 06:40:09;;;;;;;21.00;16.20;;;;;;;16.67;100.00;101542.32;105263;1267;100614;-85
2023/09/08 06:42:55;;;;;;;19.50;15.70;;;;;;;16.79;100.00;101541.80;105060;1270;99491;-84
2023/09/08 06:45:49;;;;;;;18.80;15.70;;;;;;;16.91;100.00;101541.10;105331;1271;99332;-84
2023/09/08 06:48:35;;;;;;;18.30;15.30;;;;;;;17.04;100.00;101543.23;105039;1273;99871;-85
2023/09/08 06:51:21;;;;;;;19.80;14.20;;;;;;;17.17;100.00;101545.63;105236;1276;104207;-85
2023/09/08 06:54:07;;;;;;;19.10;15.30;;;;;;;17.30;100.00;101547.05;105024;1276;100383;-85
2023/09/08 06:56:56;;;;;;;20.70;15.30;;;;;;;17.42;100.00;101549.52;105097;1269;99351;-87
2023/09/08 06:59:42;;;;;;;17.60;13.90;;;;;;;17.53;100.00;101547.54;105185;1272;99421;-84
2023/09/08 07:02:28;;;;;;;18.90;13.60;;;;;;;17.64;100.00;101546.25;105283;1273;99608;-84
2023/09/08 07:05:14;;;;;;;16.10;13.90;;;;;;;17.76;100.00;101547.56;105258;1268;102744;-85
2023/09/08 07:08:00;;;;;;;20.10;15.10;;;;;;;17.87;100.00;101548.38;105048;1267;99329;-85
2023/09/08 07:10:53;;;;;;;18.10;14.00;;;;;;;17.98;100.00;101546.31;105200;1268;99525;-84
2023/09/08 07:13:39;;;;;;;19.10;13.70;;;;;;;18.09;100.00;101547.45;105198;1273;99296;-84
2023/09/08 07:16:25;;;;;;;20.00;13.30;;;;;;;18.19;100.00;101547.09;105219;1273;99237;-85
2023/09/08 07:19:11;;;;;;;20.20;12.50;;;;;;;18.27;100.00;101546.61;105043;1275;103757;-85
2023/09/08 07:21:57;;;;;;;16.70;12.60;;;;;;;18.38;100.00;101547.27;104954;1267;99335;-85
2023/09/08 07:24:44;;;;;;;17.80;12.40;;;;;;;18.49;100.00;101548.45;105070;1276;99428;-86
2023/09/08 07:27:29;;;;;;;17.20;13.30;;;;;;;18.61;100.00;101548.63;105067;1273;99207;-86
2023/09/08 07:30:16;;;;;;;20.00;12.40;;;;;;;18.73;100.00;101548.73;105082;1276;99332;-86
2023/09/08 07:33:04;;;;;;;18.60;12.50;;;;;;;18.83;100.00;101546.00;105109;1270;102747;-86
2023/09/08 07:35:50;;;;;;;23.00;13.80;;;;;;;18.93;100.00;101546.53;105070;1273;100511;-86
2023/09/08 07:38:36;;;;;;;18.10;13.90;;;;;;;19.03;100.00;101548.05;105150;1273;99332;-86
2023/09/08 07:41:22;;;;;;;19.40;13.80;;;;;;;19.14;100.00;101546.39;104861;1271;99409;-85
2023/09/08 07:44:08;;;;;;;18.40;12.60;;;;;;;19.24;100.00;101550.58;105126;1273;99326;-85
2023/09/08 07:46:56;;;;;;;19.70;13.50;;;;;;;19.33;100.00;101550.73;105229;1272;104499;-85
2023/09/08 07:49:46;;;;;;;19.20;13.70;;;;;;;19.41;100.00;101547.45;105480;1273;99843;-85
2023/09/08 07:52:32;;;;;;;17.00;13.70;;;;;;;19.50;99.96;101543.88;105106;1269;99260;-84
2023/09/08 07:55:19;;;;;;;19.50;12.90;;;;;;;19.60;100.00;101542.23;105218;1270;99326;-85
2023/09/08 07:58:04;;;;;;;16.00;12.20;;;;;;;19.71;100.00;101539.58;105293;1273;99863;-85
2023/09/08 08:00:50;;;;;;;15.00;12.00;;;;;;;19.82;99.97;101537.73;105275;1281;102723;-83
2023/09/08 08:03:36;;;;;;;14.70;11.50;;;;;;;19.92;99.87;101536.52;105193;1267;100576;-85
2023/09/08 08:06:21;;;;;;;14.60;11.70;;;;;;;20.03;99.72;101538.76;105191;1273;99273;-84
2023/09/08 08:09:07;;;;;;;12.60;10.90;;;;;;;20.13;99.50;101538.80;105377;1273;100041;-84
2023/09/08 08:11:52;;;;;;;14.30;11.30;;;;;;;20.25;98.75;101536.39;105250;1270;99933;-85
2023/09/08 08:14:38;;;;;;;15.70;11.70;;;;;;;20.34;97.68;101534.62;105203;1273;104953;-85
2023/09/08 08:17:24;;;;;;;12.20;9.20;;;;;;;20.42;97.60;101532.63;105194;1275;100372;-85
2023/09/08 08:20:16;;;;;;;10.30;8.60;;;;;;;20.52;96.14;101537.75;105213;1267;99485;-85
2023/09/08 08:23:06;;;;;;;14.20;9.40;;;;;;;20.60;95.73;101537.17;105064;1282;99441;-85
2023/09/08 08:25:52;;;;;;;14.30;10.20;;;;;;;20.70;96.19;101537.65;105198;1268;99442;-85
2023/09/08 08:28:38;;;;;;;13.50;9.70;;;;;;;20.83;96.63;101537.39;105110;1268;103406;-84
2023/09/08 08:31:24;;;;;;;10.40;9.10;;;;;;;20.93;95.38;101538.00;105144;1270;100465;-85
2023/09/08 08:34:09;;;;;;;9.90;8.70;;;;;;;21.03;96.42;101540.13;105133;1281;99344;-86
2023/09/08 08:36:55;;;;;;;16.10;8.80;;;;;;;21.13;96.36;101540.04;105050;1269;99332;-84
2023/09/08 08:39:41;;;;;;;12.90;8.40;;;;;;;21.23;95.79;101538.32;105237;1272;99252;-85
2023/09/08 08:42:33;;;;;;;9.40;8.40;;;;;;;21.33;94.82;101533.85;105219;1272;102795;-84
2023/09/08 08:45:22;;;;;;;11.40;7.90;;;;;;;21.42;94.86;101531.02;105135;1272;99369;-85
2023/09/08 08:48:08;;;;;;;9.90;8.60;;;;;;;21.52;94.23;101534.16;105145;1273;99963;-85
2023/09/08 08:50:54;;;;;;;15.40;7.70;;;;;;;21.61;94.06;101531.20;105312;1268;99284;-84
2023/09/08 08:53:40;;;;;;;10.00;8.30;;;;;;;21.68;93.17;101530.34;105234;1267;97690;-84
2023/09/08 08:56:26;;;;;;;14.10;8.40;;;;;;;21.74;92.62;101529.38;106699;1273;102813;-85
2023/09/08 08:59:14;;;;;;;9.30;8.00;;;;;;;21.83;92.75;101530.44;106010;1267;100365;-84
2023/09/08 09:02:01;;;;;;;8.20;7.40;;;;;;;21.93;91.86;101527.52;105501;1271;107644;-85
2023/09/08 09:04:48;;;;;;;8.70;7.80;;;;;;;22.02;91.63;101524.33;105710;1272;99322;-83
2023/09/08 09:07:33;;;;;;;12.50;7.60;;;;;;;22.12;91.88;101521.21;105961;1272;99818;-90
2023/09/08 09:10:20;;;;;;;11.90;8.10;;;;;;;22.21;91.64;101520.23;105608;1274;104098;-86
2023/09/08 09:13:05;;;;;;;8.10;7.30;;;;;;;22.30;90.97;101519.02;105413;1268;99199;-85
2023/09/08 09:15:51;;;;;;;9.30;7.70;;;;;;;22.39;91.42;101518.87;105341;1267;99361;-88
2023/09/08 09:19:06;;;;;;;8.10;7.10;;;;;;;22.51;91.04;101519.79;105720;1270;99317;-84
2023/09/08 09:21:55;;;;;;;7.90;7.10;;;;;;;22.58;89.98;101516.45;105663;1274;99329;-87
2023/09/08 09:24:44;;;;;;;8.00;6.40;;;;;;;22.67;90.41;101511.95;105137;1273;104071;-85
2023/09/08 09:27:31;;;;;;;9.50;6.80;;;;;;;22.79;90.03;101511.84;105084;1267;100312;-85
2023/09/08 09:30:16;;;;;;;7.90;6.80;;;;;;;22.88;88.69;101508.17;105164;1268;100165;-86
2023/09/08 09:33:23;;;;;;;9.30;6.30;;;;;;;22.94;86.58;101506.22;105535;1267;99334;-92
2023/09/08 09:36:59;;;;;;;7.60;5.80;;;;;;;23.00;85.80;101507.92;106138;1270;99918;-93
2023/09/08 09:40:12;;;;;;;7.20;5.60;;;;;;;23.08;84.44;101501.98;106248;1273;103800;-92
2023/09/08 09:43:24;;;;;;;7.40;5.80;;;;;;;23.16;83.33;101501.25;105794;1267;100519;-91
2023/09/08 09:46:10;;;;;;;10.50;6.50;;;;;;;23.22;83.49;101498.73;105642;1270;99396;-94
2023/09/08 09:48:56;;;;;;;10.40;6.50;;;;;;;23.28;83.08;101500.64;105437;1267;99303;-89
2023/09/08 09:51:51;;;;;;;7.80;5.50;;;;;;;23.33;82.01;101497.89;105265;1276;99409;-89
2023/09/08 09:54:36;;;;;;;7.50;5.80;;;;;;;23.38;81.30;101491.48;105253;1270;103924;-88
2023/09/08 09:57:23;;;;;;;6.70;6.00;;;;;;;23.45;81.44;101487.42;105499;1267;99974;-84
2023/09/08 10:00:09;;;;;;;6.20;5.10;;;;;;;23.53;81.02;101486.14;105414;1273;99267;-87
2023/09/08 10:02:56;;;;;;;6.00;5.10;;;;;;;23.61;79.67;101481.81;105774;1267;99646;-91
2023/09/08 10:05:42;;;;;;;8.30;5.60;;;;;;;23.69;78.87;101477.45;105442;1268;99278;-85
2023/09/08 10:08:43;;;;;;;4.80;4.40;;;;;;;23.77;78.47;101473.56;105596;1267;103745;-88
2023/09/08 10:11:32;;;;;;;7.40;5.20;;;;;;;23.85;77.20;101474.48;105386;1270;99316;-83
2023/09/08 10:14:18;;;;;;;8.30;4.70;;;;;;;23.91;75.54;101468.44;105455;1273;99339;-86
2023/09/08 10:17:07;;;;;;;6.50;4.40;;;;;;;23.97;75.24;101468.64;105907;1267;99446;-88
2023/09/08 10:19:56;;;;;;;7.50;3.90;;;;;;;24.08;74.36;101465.35;105781;1270;99361;-86
2023/09/08 10:22:42;;;;;;;7.00;4.70;;;;;;;24.16;72.41;101465.17;105430;1271;103658;-86
2023/09/08 10:25:35;;;;;;;7.20;4.70;;;;;;;24.19;72.67;101466.77;105586;1268;99806;-84
2023/09/08 10:28:22;;;;;;;7.10;4.50;;;;;;;24.19;72.44;101467.70;105882;1271;99314;-87
2023/09/08 10:31:09;;;;;;;5.10;4.60;;;;;;;24.20;71.84;101467.70;105130;1267;99365;-87
2023/09/08 10:33:56;;;;;;;5.80;5.20;;;;;;;24.19;71.36;101471.69;105219;1267;97491;-86
2023/09/08 10:36:41;;;;;;;6.40;4.70;;;;;;;24.17;70.80;101468.92;105615;1271;104021;-83
2023/09/08 10:39:39;;;;;;;4.70;4.30;;;;;;;24.14;70.46;101468.62;105834;1274;100467;-90
2023/09/08 10:42:27;;;;;;;4.70;4.30;;;;;;;24.13;70.43;101464.21;105331;1268;99334;-83
2023/09/08 10:45:20;;;;;;;5.70;4.70;;;;;;;24.14;70.30;101462.59;105267;1275;99364;-85
2023/09/08 10:48:09;;;;;;;5.20;4.70;;;;;;;24.15;69.00;101459.77;105852;1267;99148;-81
2023/09/08 10:50:56;;;;;;;5.50;4.90;;;;;;;24.15;68.20;101458.56;105816;1270;102761;-85
2023/09/08 10:53:42;;;;;;;8.40;4.70;;;;;;;24.15;69.13;101455.60;105270;1267;99249;-83
2023/09/08 10:56:54;;;;;;;6.40;4.40;;;;;;;24.14;68.90;101451.42;105423;1267;99447;-86
2023/09/08 10:59:54;;;;;;;6.20;4.20;;;;;;;24.12;68.92;101448.23;105628;1273;99241;-89
2023/09/08 11:02:47;;;;;;;7.30;5.00;;;;;;;24.15;69.23;101447.11;105355;1267;99770;-82
2023/09/08 11:05:34;;;;;;;5.60;4.90;;;;;;;24.24;69.08;101445.19;105473;1268;102690;-91
2023/09/08 11:08:26;;;;;;;5.20;4.10;;;;;;;24.31;67.52;101439.79;105269;1267;99992;-86
2023/09/08 11:11:16;;;;;;;5.10;4.20;;;;;;;24.35;67.91;101434.91;105185;1268;99320;-86
2023/09/08 11:14:03;;;;;;;7.00;4.50;;;;;;;24.35;68.87;101432.13;105203;1273;99303;-88
2023/09/08 11:16:49;;;;;;;6.10;5.10;;;;;;;24.35;69.87;101431.46;105381;1267;100000;-89
2023/09/08 11:19:49;;;;;;;6.10;4.20;;;;;;;24.40;69.88;101434.75;105542;1267;104111;-90
2023/09/08 11:22:37;;;;;;;9.70;4.30;;;;;;;24.50;69.88;101432.00;104976;1267;99736;-82
2023/09/08 11:25:22;;;;;;;9.10;4.70;;;;;;;24.60;68.71;101426.12;105333;1267;99527;-81
2023/09/08 11:28:08;;;;;;;4.30;3.90;;;;;;;24.69;68.38;101423.97;105644;1272;100394;-87
2023/09/08 11:30:57;;;;;;;5.10;4.60;;;;;;;24.78;67.04;101422.11;105518;1274;99871;-88
2023/09/08 11:33:43;;;;;;;5.50;4.20;;;;;;;24.84;66.01;101424.30;105807;1276;104894;-87
2023/09/08 11:36:29;;;;;;;7.70;4.40;;;;;;;24.90;65.46;101421.40;105900;1270;100459;-84
2023/09/08 11:39:15;;;;;;;6.40;4.30;;;;;;;24.98;66.01;101412.80;105336;1270;99942;-87
2023/09/08 11:42:01;;;;;;;9.00;4.60;;;;;;;25.07;65.33;101412.22;105753;1270;99348;-84
2023/09/08 11:44:49;;;;;;;11.20;4.90;;;;;;;25.13;64.16;101408.69;105598;1267;99253;-83
2023/09/08 11:47:34;;;;;;;5.50;4.10;;;;;;;25.17;63.48;101400.95;105252;1267;102912;-84
2023/09/08 11:50:20;;;;;;;7.50;4.80;;;;;;;25.23;63.87;101400.15;105392;1268;99285;-85
2023/09/08 11:53:06;;;;;;;6.40;4.50;;;;;;;25.33;64.20;101401.70;105417;1270;99390;-86
2023/09/08 11:55:55;;;;;;;4.70;4.20;;;;;;;25.44;63.59;101400.75;105226;1273;99450;-85
2023/09/08 11:58:42;;;;;;;7.10;4.60;;;;;;;25.49;62.52;101400.73;106017;1271;98742;-88
2023/09/08 12:01:28;;;;;;;6.20;4.30;;;;;;;25.52;60.93;101398.94;105183;1271;103675;-86
2023/09/08 12:04:18;;;;;;;5.80;3.90;;;;;;;25.54;60.46;101397.17;105407;1271;100420;-83
2023/09/08 12:07:04;;;;;;;6.40;4.30;;;;;;;25.59;62.10;101392.17;105472;1267;99605;-82
2023/09/08 12:09:49;;;;;;;6.50;4.70;;;;;;;25.66;61.76;101390.23;105358;1267;99342;-83
2023/09/08 12:12:42;;;;;;;4.80;4.40;;;;;;;25.70;60.45;101386.23;105265;1267;99309;-83
2023/09/08 12:15:32;;;;;;;5.50;4.70;;;;;;;25.76;60.37;101386.70;105870;1267;102780;-86
2023/09/08 12:18:18;;;;;;;8.60;4.40;;;;;;;25.82;60.14;101386.12;105516;1272;99345;-81
2023/09/08 12:21:04;;;;;;;6.00;4.20;;;;;;;25.87;59.71;101385.55;105671;1267;99321;-83
2023/09/08 12:23:52;;;;;;;6.10;4.10;;;;;;;25.92;59.40;101386.60;105396;1267;99247;-82
2023/09/08 12:26:38;;;;;;;4.90;4.00;;;;;;;25.96;59.10;101383.06;107360;1267;97383;-84
2023/09/08 12:29:28;;;;;;;5.90;4.00;;;;;;;26.04;59.41;101385.71;105276;1272;104221;-85
2023/09/08 12:32:15;;;;;;;4.20;3.80;;;;;;;26.10;58.75;101381.85;105393;1267;99344;-85
2023/09/08 12:35:04;;;;;;;4.60;4.00;;;;;;;26.14;57.76;101379.30;105359;1272;99985;-84
2023/09/08 12:37:57;;;;;;;6.70;3.80;;;;;;;26.18;57.58;101375.83;105208;1267;99784;-85
2023/09/08 12:40:43;;;;;;;3.90;3.50;;;;;;;26.20;56.87;101374.75;105158;1273;99780;-85